Plentywood, Montana
Current Conditions -  °F | °C
As of 5:15 AM on Wednesday 28 Jan 2015 (Local Time) from KD50 Reporting Station
Moderate Fog Moderate Fog  
Wind Chill: 19°   Ceiling: 100
Heat Index: 28°   Visibility: 0.25mi
Dew Point: 28°   Wind: 10mph
Humidity: 100%   Direction: 80°E
Pressure: 29.77"   Gusts: NA
Location:  48.77°N, 104.56°W
Report Text: KD50 281215Z AUTO 08009KT 1/4SM FZFG OVC001 M02/M02 A2977 RMK AO2
Loading
Personal Weather Stations






























Interactive Weather Map New forecast layout! Learn more

10-Day Weather Forecast

Advertisements
Track Severe Weather on mobile